<?xml version="1.0" encoding="UTF-8" standalone="no" ?>
<gpx xmlns="http://www.topografix.com/GPX/1/1" xmlns:xsi="http://www.w3.org/2001/XMLSchema-instance" xsi:schemaLocation="http://www.topografix.com/GPX/1/1 http://www.topografix.com/GPX/1/1/gpx.xsd" version="1.1" creator="VisuGPX - https://www.visugpx.com">
  <metadata>
    <name>mega parcours rouge</name>
  </metadata>
  <trk>
    <name><![CDATA[mega parcours rouge_10]]></name>
    <trkseg>
      <trkpt lat="47.5969" lon="6.58676">
        <ele>379</ele>
        <time>2020-12-10T18:44:12+01:00</time>
      </trkpt>
      <trkpt lat="47.59855" lon="6.58538">
        <ele>420</ele>
        <time>2020-12-10T18:44:16+01:00</time>
      </trkpt>
      <trkpt lat="47.59884" lon="6.58453">
        <ele>415</ele>
        <time>2020-12-10T18:44:20+01:00</time>
      </trkpt>
      <trkpt lat="47.59832" lon="6.58268">
        <ele>431</ele>
        <time>2020-12-10T18:44:24+01:00</time>
      </trkpt>
      <trkpt lat="47.5982" lon="6.58092">
        <ele>416</ele>
        <time>2020-12-10T18:44:28+01:00</time>
      </trkpt>
      <trkpt lat="47.59774" lon="6.57933">
        <ele>420</ele>
        <time>2020-12-10T18:44:33+01:00</time>
      </trkpt>
      <trkpt lat="47.59803" lon="6.57847">
        <ele>402</ele>
        <time>2020-12-10T18:44:37+01:00</time>
      </trkpt>
      <trkpt lat="47.59757" lon="6.57663">
        <ele>441</ele>
        <time>2020-12-10T18:44:41+01:00</time>
      </trkpt>
      <trkpt lat="47.59789" lon="6.57641">
        <ele>439</ele>
        <time>2020-12-10T18:44:45+01:00</time>
      </trkpt>
      <trkpt lat="47.59886" lon="6.57538">
        <ele>432</ele>
        <time>2020-12-10T18:44:49+01:00</time>
      </trkpt>
      <trkpt lat="47.59915" lon="6.57483">
        <ele>426</ele>
        <time>2020-12-10T18:44:53+01:00</time>
      </trkpt>
      <trkpt lat="47.59894" lon="6.57247">
        <ele>404</ele>
        <time>2020-12-10T18:44:58+01:00</time>
      </trkpt>
      <trkpt lat="47.5988" lon="6.57131">
        <ele>391</ele>
        <time>2020-12-10T18:45:02+01:00</time>
      </trkpt>
      <trkpt lat="47.59828" lon="6.56959">
        <ele>388</ele>
        <time>2020-12-10T18:45:06+01:00</time>
      </trkpt>
      <trkpt lat="47.59793" lon="6.56835">
        <ele>389</ele>
        <time>2020-12-10T18:45:11+01:00</time>
      </trkpt>
      <trkpt lat="47.59747" lon="6.56667">
        <ele>389</ele>
        <time>2020-12-10T18:45:15+01:00</time>
      </trkpt>
      <trkpt lat="47.59697" lon="6.56483">
        <ele>384</ele>
        <time>2020-12-10T18:45:19+01:00</time>
      </trkpt>
      <trkpt lat="47.59683" lon="6.56371">
        <ele>375</ele>
        <time>2020-12-10T18:45:24+01:00</time>
      </trkpt>
      <trkpt lat="47.59657" lon="6.56277">
        <ele>368</ele>
        <time>2020-12-10T18:45:28+01:00</time>
      </trkpt>
      <trkpt lat="47.59648" lon="6.56199">
        <ele>363</ele>
        <time>2020-12-10T18:45:33+01:00</time>
      </trkpt>
      <trkpt lat="47.59608" lon="6.56118">
        <ele>360</ele>
        <time>2020-12-10T18:45:37+01:00</time>
      </trkpt>
      <trkpt lat="47.59614" lon="6.56011">
        <ele>354</ele>
        <time>2020-12-10T18:45:42+01:00</time>
      </trkpt>
      <trkpt lat="47.59637" lon="6.55933">
        <ele>353</ele>
        <time>2020-12-10T18:45:46+01:00</time>
      </trkpt>
      <trkpt lat="47.59657" lon="6.55843">
        <ele>350</ele>
        <time>2020-12-10T18:45:51+01:00</time>
      </trkpt>
      <trkpt lat="47.59718" lon="6.55779">
        <ele>349</ele>
        <time>2020-12-10T18:45:55+01:00</time>
      </trkpt>
      <trkpt lat="47.59755" lon="6.55732">
        <ele>349</ele>
        <time>2020-12-10T18:46:00+01:00</time>
      </trkpt>
      <trkpt lat="47.59807" lon="6.55702">
        <ele>350</ele>
        <time>2020-12-10T18:46:04+01:00</time>
      </trkpt>
      <trkpt lat="47.59842" lon="6.55646">
        <ele>352</ele>
        <time>2020-12-10T18:46:09+01:00</time>
      </trkpt>
      <trkpt lat="47.59891" lon="6.55599">
        <ele>351</ele>
        <time>2020-12-10T18:46:14+01:00</time>
      </trkpt>
      <trkpt lat="47.59972" lon="6.55461">
        <ele>354</ele>
        <time>2020-12-10T18:46:18+01:00</time>
      </trkpt>
      <trkpt lat="47.60049" lon="6.55358">
        <ele>360</ele>
        <time>2020-12-10T18:46:23+01:00</time>
      </trkpt>
      <trkpt lat="47.60252" lon="6.55238">
        <ele>365</ele>
        <time>2020-12-10T18:46:28+01:00</time>
      </trkpt>
      <trkpt lat="47.60451" lon="6.55054">
        <ele>363</ele>
        <time>2020-12-10T18:46:33+01:00</time>
      </trkpt>
      <trkpt lat="47.60541" lon="6.54985">
        <ele>365</ele>
        <time>2020-12-10T18:46:37+01:00</time>
      </trkpt>
      <trkpt lat="47.60657" lon="6.54809">
        <ele>362</ele>
        <time>2020-12-10T18:46:42+01:00</time>
      </trkpt>
      <trkpt lat="47.60767" lon="6.54758">
        <ele>349</ele>
        <time>2020-12-10T18:46:47+01:00</time>
      </trkpt>
      <trkpt lat="47.60796" lon="6.5471">
        <ele>341</ele>
        <time>2020-12-10T18:46:52+01:00</time>
      </trkpt>
      <trkpt lat="47.60917" lon="6.54818">
        <ele>322</ele>
        <time>2020-12-10T18:46:57+01:00</time>
      </trkpt>
      <trkpt lat="47.60992" lon="6.54946">
        <ele>311</ele>
        <time>2020-12-10T18:47:02+01:00</time>
      </trkpt>
      <trkpt lat="47.61068" lon="6.54951">
        <ele>301</ele>
        <time>2020-12-10T18:47:07+01:00</time>
      </trkpt>
      <trkpt lat="47.61169" lon="6.54886">
        <ele>294</ele>
        <time>2020-12-10T18:47:12+01:00</time>
      </trkpt>
      <trkpt lat="47.6125" lon="6.54942">
        <ele>289</ele>
        <time>2020-12-10T18:47:17+01:00</time>
      </trkpt>
      <trkpt lat="47.61423" lon="6.54942">
        <ele>291</ele>
        <time>2020-12-10T18:47:22+01:00</time>
      </trkpt>
      <trkpt lat="47.61293" lon="6.5526">
        <ele>292</ele>
        <time>2020-12-10T18:47:27+01:00</time>
      </trkpt>
      <trkpt lat="47.61247" lon="6.55543">
        <ele>296</ele>
        <time>2020-12-10T18:47:32+01:00</time>
      </trkpt>
      <trkpt lat="47.61209" lon="6.55586">
        <ele>294</ele>
        <time>2020-12-10T18:47:37+01:00</time>
      </trkpt>
      <trkpt lat="47.61204" lon="6.55706">
        <ele>313</ele>
        <time>2020-12-10T18:47:42+01:00</time>
      </trkpt>
      <trkpt lat="47.61227" lon="6.55753">
        <ele>322</ele>
        <time>2020-12-10T18:47:47+01:00</time>
      </trkpt>
      <trkpt lat="47.6123" lon="6.5583">
        <ele>328</ele>
        <time>2020-12-10T18:47:52+01:00</time>
      </trkpt>
      <trkpt lat="47.61279" lon="6.55852">
        <ele>333</ele>
        <time>2020-12-10T18:47:57+01:00</time>
      </trkpt>
      <trkpt lat="47.61371" lon="6.55818">
        <ele>340</ele>
        <time>2020-12-10T18:48:03+01:00</time>
      </trkpt>
      <trkpt lat="47.6186" lon="6.55989">
        <ele>357</ele>
        <time>2020-12-10T18:48:08+01:00</time>
      </trkpt>
      <trkpt lat="47.61904" lon="6.558">
        <ele>354</ele>
        <time>2020-12-10T18:48:13+01:00</time>
      </trkpt>
      <trkpt lat="47.61947" lon="6.5571">
        <ele>353</ele>
        <time>2020-12-10T18:48:19+01:00</time>
      </trkpt>
      <trkpt lat="47.61944" lon="6.55646">
        <ele>351</ele>
        <time>2020-12-10T18:48:24+01:00</time>
      </trkpt>
      <trkpt lat="47.61915" lon="6.5544">
        <ele>337</ele>
        <time>2020-12-10T18:48:29+01:00</time>
      </trkpt>
      <trkpt lat="47.61852" lon="6.55401">
        <ele>323</ele>
        <time>2020-12-10T18:48:35+01:00</time>
      </trkpt>
      <trkpt lat="47.61927" lon="6.55054">
        <ele>290</ele>
        <time>2020-12-10T18:48:40+01:00</time>
      </trkpt>
      <trkpt lat="47.61988" lon="6.55131">
        <ele>296</ele>
        <time>2020-12-10T18:48:45+01:00</time>
      </trkpt>
      <trkpt lat="47.62158" lon="6.55208">
        <ele>293</ele>
        <time>2020-12-10T18:48:51+01:00</time>
      </trkpt>
      <trkpt lat="47.62242" lon="6.55367">
        <ele>293</ele>
        <time>2020-12-10T18:48:56+01:00</time>
      </trkpt>
      <trkpt lat="47.62378" lon="6.55504">
        <ele>294</ele>
        <time>2020-12-10T18:49:02+01:00</time>
      </trkpt>
      <trkpt lat="47.62497" lon="6.55564">
        <ele>295</ele>
        <time>2020-12-10T18:49:08+01:00</time>
      </trkpt>
      <trkpt lat="47.62537" lon="6.55629">
        <ele>299</ele>
        <time>2020-12-10T18:49:13+01:00</time>
      </trkpt>
      <trkpt lat="47.62754" lon="6.55586">
        <ele>302</ele>
        <time>2020-12-10T18:49:19+01:00</time>
      </trkpt>
      <trkpt lat="47.62896" lon="6.55607">
        <ele>291</ele>
        <time>2020-12-10T18:49:24+01:00</time>
      </trkpt>
      <trkpt lat="47.62985" lon="6.55513">
        <ele>294</ele>
        <time>2020-12-10T18:49:30+01:00</time>
      </trkpt>
      <trkpt lat="47.62939" lon="6.55376">
        <ele>292</ele>
        <time>2020-12-10T18:49:36+01:00</time>
      </trkpt>
      <trkpt lat="47.62985" lon="6.55255">
        <ele>298</ele>
        <time>2020-12-10T18:49:41+01:00</time>
      </trkpt>
      <trkpt lat="47.62893" lon="6.55075">
        <ele>309</ele>
        <time>2020-12-10T18:49:47+01:00</time>
      </trkpt>
      <trkpt lat="47.62884" lon="6.54938">
        <ele>312</ele>
        <time>2020-12-10T18:49:53+01:00</time>
      </trkpt>
      <trkpt lat="47.62847" lon="6.54637">
        <ele>310</ele>
        <time>2020-12-10T18:49:59+01:00</time>
      </trkpt>
    </trkseg>
  </trk>
</gpx>